createdAt,value
2023-10-09T00:06:18.045Z,16.25
2023-10-09T00:13:31.595Z,16.11
2023-10-09T00:20:40.597Z,16.03
2023-10-09T00:27:43.663Z,15.89
2023-10-09T00:34:45.420Z,15.97
2023-10-09T00:41:47.342Z,16.01
2023-10-09T00:48:49.649Z,15.82
2023-10-09T00:55:56.838Z,15.85
2023-10-09T01:03:23.088Z,15.66
2023-10-09T01:10:26.008Z,15.37
2023-10-09T01:17:36.747Z,15.34
2023-10-09T01:24:40.058Z,15.39
2023-10-09T01:31:47.829Z,15.30
2023-10-09T01:38:51.449Z,15.27
2023-10-09T01:45:53.240Z,15.19
2023-10-09T01:52:54.988Z,15.21
2023-10-09T01:59:58.892Z,15.24
2023-10-09T02:07:00.647Z,15.19
2023-10-09T02:14:03.062Z,15.06
2023-10-09T02:21:04.512Z,15.16
2023-10-09T02:28:07.047Z,15.17
2023-10-09T02:35:29.317Z,15.10
2023-10-09T02:42:31.898Z,15.19
2023-10-09T02:49:35.172Z,15.16
2023-10-09T02:56:48.631Z,14.84
2023-10-09T03:03:51.188Z,14.45
2023-10-09T03:10:52.889Z,14.37
2023-10-09T03:17:54.563Z,14.11
2023-10-09T03:24:56.693Z,14.08
2023-10-09T03:31:58.545Z,14.08
2023-10-09T03:39:00.824Z,14.12
2023-10-09T03:46:04.579Z,14.17
2023-10-09T03:53:08.380Z,13.95
2023-10-09T04:00:17.147Z,14.03
2023-10-09T04:07:18.818Z,14.14
2023-10-09T04:14:27.129Z,14.25
2023-10-09T04:21:38.065Z,14.22
2023-10-09T04:28:43.085Z,14.36
2023-10-09T04:36:04.626Z,14.39
2023-10-09T04:43:10.807Z,14.34
2023-10-09T04:50:13.010Z,14.27
2023-10-09T04:57:19.048Z,14.28
2023-10-09T05:04:38.896Z,14.30
2023-10-09T05:11:52.730Z,14.34
2023-10-09T05:18:58.806Z,14.31
2023-10-09T05:26:20.777Z,14.27
2023-10-09T05:33:40.544Z,14.06
2023-10-09T05:40:46.575Z,14.24
2023-10-09T05:47:58.958Z,14.20
2023-10-09T05:55:19.165Z,14.13
2023-10-09T06:02:45.572Z,14.18
2023-10-09T06:09:58.825Z,14.24
2023-10-09T06:17:23.478Z,14.21
2023-10-09T06:24:25.178Z,14.06
2023-10-09T06:31:49.550Z,13.92
2023-10-09T06:39:14.100Z,13.95
2023-10-09T06:46:28.072Z,14.07
2023-10-09T06:53:49.827Z,14.14
2023-10-09T07:00:54.292Z,14.26
2023-10-09T07:07:56.956Z,14.33
2023-10-09T07:15:24.669Z,14.42
2023-10-09T07:22:30.701Z,14.45
2023-10-09T07:29:44.216Z,14.63
2023-10-09T07:36:49.418Z,14.57
2023-10-09T07:43:51.959Z,14.33
2023-10-09T07:50:58.480Z,14.58
2023-10-09T07:58:11.850Z,14.62
2023-10-09T08:05:23.854Z,14.86
2023-10-09T08:13:00.770Z,14.93
2023-10-09T08:20:12.611Z,14.90
2023-10-09T08:27:32.670Z,14.76
2023-10-09T08:41:54.390Z,14.91
2023-10-09T08:49:06.153Z,14.97
2023-10-09T08:56:08.958Z,14.95
2023-10-09T09:03:10.847Z,15.01
2023-10-09T09:10:18.743Z,15.00
2023-10-09T09:17:24.845Z,15.09
2023-10-09T09:24:26.594Z,14.76
2023-10-09T09:31:28.443Z,15.00
2023-10-09T09:38:36.547Z,15.26
2023-10-09T09:45:38.837Z,14.92
2023-10-09T09:52:40.991Z,15.15
2023-10-09T09:59:51.134Z,15.43
2023-10-09T10:06:52.985Z,15.35
2023-10-09T10:13:57.642Z,15.17
2023-10-09T10:21:18.347Z,15.30
2023-10-09T10:28:30.431Z,15.29
2023-10-09T10:35:41.100Z,15.38
2023-10-09T10:43:07.007Z,15.31
2023-10-09T10:50:35.390Z,15.33
2023-10-09T10:57:55.284Z,15.49
2023-10-09T11:04:57.508Z,15.43
2023-10-09T11:12:22.652Z,15.78
2023-10-09T11:19:33.275Z,15.64
2023-10-09T11:26:41.379Z,15.66
2023-10-09T11:33:47.610Z,15.87
2023-10-09T11:40:55.251Z,15.89
2023-10-09T11:47:59.108Z,16.15
2023-10-09T11:55:00.873Z,16.38
2023-10-09T12:02:06.484Z,16.24
2023-10-09T12:09:17.721Z,15.94
2023-10-09T12:16:19.482Z,16.46
2023-10-09T12:23:22.441Z,16.32
2023-10-09T12:30:27.960Z,16.02
2023-10-09T12:37:32.420Z,16.13
2023-10-09T12:44:35.479Z,15.61
2023-10-09T12:51:37.367Z,16.01
2023-10-09T12:58:42.699Z,16.29
2023-10-09T13:05:53.065Z,16.02
2023-10-09T13:12:57.507Z,16.30
2023-10-09T13:19:59.170Z,16.16
2023-10-09T13:27:00.851Z,16.34
2023-10-09T13:34:04.582Z,16.37
2023-10-09T13:41:08.415Z,16.48
2023-10-09T13:48:13.604Z,16.38
2023-10-09T13:55:18.416Z,16.46
2023-10-09T14:02:22.353Z,16.17
2023-10-09T14:09:39.044Z,16.22
2023-10-09T14:16:44.331Z,16.19
2023-10-09T14:23:48.114Z,16.23
2023-10-09T14:30:57.727Z,16.25
2023-10-09T14:38:02.368Z,15.98
2023-10-09T14:45:09.280Z,15.99
2023-10-09T14:52:11.436Z,16.02
2023-10-09T14:59:13.242Z,15.84
2023-10-09T15:06:16.034Z,15.88
2023-10-09T15:13:17.673Z,15.95
2023-10-09T15:20:19.472Z,16.09
2023-10-09T15:27:21.128Z,15.91
2023-10-09T15:34:23.013Z,16.08
2023-10-09T15:41:24.658Z,15.93
2023-10-09T15:48:26.335Z,15.77
2023-10-09T15:55:28.065Z,15.96
2023-10-09T16:02:29.751Z,15.94
2023-10-09T16:09:35.982Z,15.93
2023-10-09T16:16:42.819Z,15.70
2023-10-09T16:23:44.841Z,15.42
2023-10-09T16:30:46.586Z,15.52
2023-10-09T16:37:50.597Z,15.82
2023-10-09T16:44:52.308Z,15.67
2023-10-09T16:51:56.249Z,15.67
2023-10-09T16:58:58.065Z,15.82
2023-10-09T17:06:05.140Z,15.62
2023-10-09T17:13:09.101Z,15.64
2023-10-09T17:20:11.846Z,15.67
2023-10-09T17:27:18.800Z,15.41
2023-10-09T17:34:24.041Z,15.45
2023-10-09T17:41:25.758Z,15.57
2023-10-09T17:48:27.595Z,15.55
2023-10-09T17:55:30.834Z,15.35
2023-10-09T18:02:32.956Z,15.43
2023-10-09T18:09:34.742Z,15.27
2023-10-09T18:16:38.712Z,15.31
2023-10-09T18:23:46.246Z,15.18
2023-10-09T18:30:50.464Z,15.29
2023-10-09T18:37:57.971Z,15.27
2023-10-09T18:44:59.740Z,15.36
2023-10-09T18:52:01.601Z,15.14
2023-10-09T18:59:09.821Z,15.16
2023-10-09T19:06:13.680Z,15.32
2023-10-09T19:13:15.511Z,15.27
2023-10-09T19:20:18.282Z,15.18
2023-10-09T19:27:26.509Z,15.29
2023-10-09T19:34:28.106Z,15.35
2023-10-09T19:41:32.320Z,15.39
2023-10-09T19:48:36.457Z,15.45
2023-10-09T19:55:41.427Z,15.51
2023-10-09T20:02:43.356Z,15.27
2023-10-09T20:09:46.744Z,15.32
2023-10-09T20:16:49.426Z,15.17
2023-10-09T20:23:51.738Z,15.30
2023-10-09T20:30:54.165Z,15.26
2023-10-09T20:37:56.892Z,15.16
2023-10-09T20:44:59.447Z,15.17
2023-10-09T20:52:01.634Z,15.06
2023-10-09T20:59:03.479Z,15.12
2023-10-09T21:06:08.514Z,15.17
2023-10-09T21:13:10.256Z,15.15
2023-10-09T21:20:19.138Z,15.08
2023-10-09T21:27:20.814Z,15.18
2023-10-09T21:34:23.006Z,15.15
2023-10-09T21:41:27.192Z,15.09
2023-10-09T21:48:29.018Z,14.88
2023-10-09T21:55:32.626Z,15.27
2023-10-09T22:02:34.464Z,15.24
2023-10-09T22:09:36.695Z,15.11
2023-10-09T22:16:41.323Z,14.93
2023-10-09T22:23:54.025Z,14.89
2023-10-09T22:30:56.952Z,15.08
2023-10-09T22:37:59.499Z,15.09
2023-10-09T22:45:01.437Z,14.98
2023-10-09T22:52:04.444Z,15.00
2023-10-09T22:59:21.519Z,15.03
2023-10-09T23:06:34.650Z,15.07
2023-10-09T23:13:36.800Z,15.09
2023-10-09T23:20:50.400Z,15.04
2023-10-09T23:27:51.987Z,15.21
2023-10-09T23:34:54.015Z,15.19
2023-10-09T23:42:03.274Z,15.22
2023-10-09T23:49:08.365Z,15.19
2023-10-09T23:56:43.008Z,15.12
